sensor_id;sensor_type;location;lat;lon;timestamp;pressure;altitude;pressure_sealevel;temperature;humidity
9839;BME280;4958;48.150;11.506;2024-03-08T00:00:43;95341.78;;;3.33;79.93
9839;BME280;4958;48.150;11.506;2024-03-08T00:03:10;95338.81;;;3.38;80.09
9839;BME280;4958;48.150;11.506;2024-03-08T00:05:37;95336.53;;;3.44;80.14
9839;BME280;4958;48.150;11.506;2024-03-08T00:08:05;95329.72;;;3.35;79.79
9839;BME280;4958;48.150;11.506;2024-03-08T00:10:31;95334.25;;;3.41;79.70
9839;BME280;4958;48.150;11.506;2024-03-08T00:12:58;95323.56;;;3.28;79.59
9839;BME280;4958;48.150;11.506;2024-03-08T00:15:24;95331.63;;;3.24;80.12
9839;BME280;4958;48.150;11.506;2024-03-08T00:17:51;95338.31;;;3.25;80.22
9839;BME280;4958;48.150;11.506;2024-03-08T00:20:18;95343.66;;;3.31;80.02
9839;BME280;4958;48.150;11.506;2024-03-08T00:22:46;95321.97;;;3.27;79.83
9839;BME280;4958;48.150;11.506;2024-03-08T00:25:13;95315.00;;;3.29;79.40
9839;BME280;4958;48.150;11.506;2024-03-08T00:27:39;95319.28;;;3.29;79.82
9839;BME280;4958;48.150;11.506;2024-03-08T00:30:07;95330.69;;;3.25;79.96
9839;BME280;4958;48.150;11.506;2024-03-08T00:32:33;95323.34;;;3.22;79.87
9839;BME280;4958;48.150;11.506;2024-03-08T00:35:04;95320.25;;;3.18;80.13
9839;BME280;4958;48.150;11.506;2024-03-08T00:37:32;95330.44;;;3.18;80.37
9839;BME280;4958;48.150;11.506;2024-03-08T00:40:00;95335.53;;;3.18;80.52
9839;BME280;4958;48.150;11.506;2024-03-08T00:42:27;95336.06;;;3.12;80.78
9839;BME280;4958;48.150;11.506;2024-03-08T00:44:53;95331.78;;;3.22;80.68
9839;BME280;4958;48.150;11.506;2024-03-08T00:47:19;95317.03;;;3.26;80.21
9839;BME280;4958;48.150;11.506;2024-03-08T00:49:46;95306.88;;;3.26;80.04
9839;BME280;4958;48.150;11.506;2024-03-08T00:52:12;95315.72;;;3.12;80.20
9839;BME280;4958;48.150;11.506;2024-03-08T00:54:39;95320.44;;;2.97;80.83
9839;BME280;4958;48.150;11.506;2024-03-08T00:57:06;95346.53;;;2.99;81.72
9839;BME280;4958;48.150;11.506;2024-03-08T00:59:33;95346.81;;;2.87;81.95
9839;BME280;4958;48.150;11.506;2024-03-08T01:01:59;95357.09;;;2.95;82.50
9839;BME280;4958;48.150;11.506;2024-03-08T01:04:26;95347.72;;;2.95;82.38
9839;BME280;4958;48.150;11.506;2024-03-08T01:06:54;95351.88;;;2.96;82.43
9839;BME280;4958;48.150;11.506;2024-03-08T01:09:21;95358.03;;;2.94;82.86
9839;BME280;4958;48.150;11.506;2024-03-08T01:11:47;95349.59;;;3.03;82.07
9839;BME280;4958;48.150;11.506;2024-03-08T01:14:16;95329.94;;;3.05;81.75
9839;BME280;4958;48.150;11.506;2024-03-08T01:16:42;95334.31;;;3.12;81.83
9839;BME280;4958;48.150;11.506;2024-03-08T01:19:09;95323.06;;;3.15;81.67
9839;BME280;4958;48.150;11.506;2024-03-08T01:21:35;95314.09;;;3.11;81.13
9839;BME280;4958;48.150;11.506;2024-03-08T01:24:02;95321.88;;;3.09;81.27
9839;BME280;4958;48.150;11.506;2024-03-08T01:26:28;95313.06;;;3.04;81.87
9839;BME280;4958;48.150;11.506;2024-03-08T01:28:55;95326.59;;;2.95;82.22
9839;BME280;4958;48.150;11.506;2024-03-08T01:31:22;95334.09;;;2.96;82.33
9839;BME280;4958;48.150;11.506;2024-03-08T01:33:49;95334.22;;;3.04;82.50
9839;BME280;4958;48.150;11.506;2024-03-08T01:36:15;95311.88;;;2.98;82.54
9839;BME280;4958;48.150;11.506;2024-03-08T01:38:43;95320.44;;;2.97;82.57
9839;BME280;4958;48.150;11.506;2024-03-08T01:41:09;95313.88;;;3.04;82.30
9839;BME280;4958;48.150;11.506;2024-03-08T01:43:35;95321.09;;;2.99;82.84
9839;BME280;4958;48.150;11.506;2024-03-08T01:46:02;95318.69;;;2.98;82.44
9839;BME280;4958;48.150;11.506;2024-03-08T01:48:30;95319.66;;;2.87;83.36
9839;BME280;4958;48.150;11.506;2024-03-08T01:50:57;95325.69;;;2.86;83.38
9839;BME280;4958;48.150;11.506;2024-03-08T01:53:24;95339.59;;;2.82;83.68
9839;BME280;4958;48.150;11.506;2024-03-08T01:55:54;95344.66;;;2.72;84.52
9839;BME280;4958;48.150;11.506;2024-03-08T01:58:22;95342.41;;;2.79;84.54
9839;BME280;4958;48.150;11.506;2024-03-08T02:00:49;95336.78;;;2.75;84.58
9839;BME280;4958;48.150;11.506;2024-03-08T02:03:16;95337.97;;;2.71;84.79
9839;BME280;4958;48.150;11.506;2024-03-08T02:05:43;95348.69;;;2.75;85.14
9839;BME280;4958;48.150;11.506;2024-03-08T02:08:10;95341.31;;;2.72;85.31
9839;BME280;4958;48.150;11.506;2024-03-08T02:10:39;95348.56;;;2.67;85.55
9839;BME280;4958;48.150;11.506;2024-03-08T02:13:07;95361.81;;;2.61;86.17
9839;BME280;4958;48.150;11.506;2024-03-08T02:15:52;95350.97;;;2.68;86.08
9839;BME280;4958;48.150;11.506;2024-03-08T02:18:19;95361.16;;;2.68;86.17
9839;BME280;4958;48.150;11.506;2024-03-08T02:20:47;95346.81;;;2.77;85.79
9839;BME280;4958;48.150;11.506;2024-03-08T02:23:14;95344.41;;;2.75;85.55
9839;BME280;4958;48.150;11.506;2024-03-08T02:25:43;95350.16;;;2.77;85.81
9839;BME280;4958;48.150;11.506;2024-03-08T02:28:11;95351.50;;;2.72;86.01
9839;BME280;4958;48.150;11.506;2024-03-08T02:30:38;95339.84;;;2.79;85.74
9839;BME280;4958;48.150;11.506;2024-03-08T02:33:04;95338.38;;;2.76;85.76
9839;BME280;4958;48.150;11.506;2024-03-08T02:35:31;95349.09;;;2.80;86.22
9839;BME280;4958;48.150;11.506;2024-03-08T02:37:58;95351.91;;;2.77;86.11
9839;BME280;4958;48.150;11.506;2024-03-08T02:40:25;95340.25;;;2.74;86.42
9839;BME280;4958;48.150;11.506;2024-03-08T02:42:52;95349.75;;;2.63;86.65
9839;BME280;4958;48.150;11.506;2024-03-08T02:45:18;95351.50;;;2.72;86.63
9839;BME280;4958;48.150;11.506;2024-03-08T02:47:45;95340.00;;;2.77;86.12
9839;BME280;4958;48.150;11.506;2024-03-08T02:50:14;95333.44;;;2.75;86.02
9839;BME280;4958;48.150;11.506;2024-03-08T02:52:41;95344.81;;;2.81;85.93
9839;BME280;4958;48.150;11.506;2024-03-08T02:55:09;95325.69;;;2.76;86.14
9839;BME280;4958;48.150;11.506;2024-03-08T02:57:36;95333.72;;;2.62;86.41
9839;BME280;4958;48.150;11.506;2024-03-08T03:00:03;95337.47;;;2.68;86.55
9839;BME280;4958;48.150;11.506;2024-03-08T03:02:30;95345.47;;;2.73;86.60
9839;BME280;4958;48.150;11.506;2024-03-08T03:04:56;95350.19;;;2.68;86.69
9839;BME280;4958;48.150;11.506;2024-03-08T03:07:23;95351.63;;;2.51;87.78
9839;BME280;4958;48.150;11.506;2024-03-08T03:09:52;95361.94;;;2.50;88.00
9839;BME280;4958;48.150;11.506;2024-03-08T03:12:20;95369.53;;;2.40;88.63
9839;BME280;4958;48.150;11.506;2024-03-08T03:14:47;95380.50;;;2.40;89.33
9839;BME280;4958;48.150;11.506;2024-03-08T03:17:13;95385.72;;;2.39;89.29
9839;BME280;4958;48.150;11.506;2024-03-08T03:19:40;95379.03;;;2.38;89.31
9839;BME280;4958;48.150;11.506;2024-03-08T03:22:07;95375.72;;;2.47;89.52
9839;BME280;4958;48.150;11.506;2024-03-08T03:24:34;95372.75;;;2.52;89.05
9839;BME280;4958;48.150;11.506;2024-03-08T03:27:03;95364.59;;;2.58;88.44
9839;BME280;4958;48.150;11.506;2024-03-08T03:29:37;95356.19;;;2.67;88.06
9839;BME280;4958;48.150;11.506;2024-03-08T03:32:03;95342.28;;;2.61;87.74
9839;BME280;4958;48.150;11.506;2024-03-08T03:34:30;95348.28;;;2.60;88.01
9839;BME280;4958;48.150;11.506;2024-03-08T03:36:57;95355.91;;;2.51;88.31
9839;BME280;4958;48.150;11.506;2024-03-08T03:39:23;95361.53;;;2.54;88.56
9839;BME280;4958;48.150;11.506;2024-03-08T03:41:50;95343.06;;;2.62;87.83
9839;BME280;4958;48.150;11.506;2024-03-08T03:44:17;95354.44;;;2.48;88.64
9839;BME280;4958;48.150;11.506;2024-03-08T03:46:45;95363.81;;;2.48;89.30
9839;BME280;4958;48.150;11.506;2024-03-08T03:49:11;95365.25;;;2.40;89.16
9839;BME280;4958;48.150;11.506;2024-03-08T03:51:38;95358.59;;;2.49;89.29
9839;BME280;4958;48.150;11.506;2024-03-08T03:54:04;95348.41;;;2.59;88.39
9839;BME280;4958;48.150;11.506;2024-03-08T03:56:31;95343.06;;;2.62;88.29
9839;BME280;4958;48.150;11.506;2024-03-08T03:58:57;95342.28;;;2.61;88.21
9839;BME280;4958;48.150;11.506;2024-03-08T04:01:24;95337.59;;;2.57;88.25
9839;BME280;4958;48.150;11.506;2024-03-08T04:03:51;95346.81;;;2.58;88.49
9839;BME280;4958;48.150;11.506;2024-03-08T04:06:18;95342.94;;;2.54;88.42
9839;BME280;4958;48.150;11.506;2024-03-08T04:08:44;95342.69;;;2.47;88.82
9839;BME280;4958;48.150;11.506;2024-03-08T04:11:11;95348.28;;;2.51;88.96
9839;BME280;4958;48.150;11.506;2024-03-08T04:13:37;95347.75;;;2.47;88.83
9839;BME280;4958;48.150;11.506;2024-03-08T04:16:05;95358.31;;;2.42;89.49
9839;BME280;4958;48.150;11.506;2024-03-08T04:18:33;95357.38;;;2.43;89.76
9839;BME280;4958;48.150;11.506;2024-03-08T04:21:02;95369.38;;;2.32;90.25
9839;BME280;4958;48.150;11.506;2024-03-08T04:23:31;95370.84;;;2.25;90.86
9839;BME280;4958;48.150;11.506;2024-03-08T04:26:00;95390.38;;;2.34;90.96
9839;BME280;4958;48.150;11.506;2024-03-08T04:28:26;95379.03;;;2.28;90.93
9839;BME280;4958;48.150;11.506;2024-03-08T04:30:53;95374.63;;;2.30;91.00
9839;BME280;4958;48.150;11.506;2024-03-08T04:33:20;95380.09;;;2.35;90.81
9839;BME280;4958;48.150;11.506;2024-03-08T04:35:47;95374.31;;;2.33;90.63
9839;BME280;4958;48.150;11.506;2024-03-08T04:38:14;95365.78;;;2.34;90.51
9839;BME280;4958;48.150;11.506;2024-03-08T04:40:41;95368.31;;;2.34;90.68
9839;BME280;4958;48.150;11.506;2024-03-08T04:43:08;95373.94;;;2.38;90.55
9839;BME280;4958;48.150;11.506;2024-03-08T04:45:35;95360.19;;;2.40;90.31
9839;BME280;4958;48.150;11.506;2024-03-08T04:48:02;95363.41;;;2.42;90.09
9839;BME280;4958;48.150;11.506;2024-03-08T04:50:29;95349.75;;;2.53;89.17
9839;BME280;4958;48.150;11.506;2024-03-08T04:52:55;95346.56;;;2.61;89.22
9839;BME280;4958;48.150;11.506;2024-03-08T04:55:23;95335.59;;;2.60;88.71
9839;BME280;4958;48.150;11.506;2024-03-08T04:57:50;95324.09;;;2.66;88.35
9839;BME280;4958;48.150;11.506;2024-03-08T05:00:16;95321.41;;;2.67;87.94
9839;BME280;4958;48.150;11.506;2024-03-08T05:02:43;95323.03;;;2.49;88.64
9839;BME280;4958;48.150;11.506;2024-03-08T05:05:09;95347.34;;;2.42;89.19
9839;BME280;4958;48.150;11.506;2024-03-08T05:07:37;95344.00;;;2.41;89.88
9839;BME280;4958;48.150;11.506;2024-03-08T05:10:05;95351.91;;;2.48;89.31
9839;BME280;4958;48.150;11.506;2024-03-08T05:12:34;95345.06;;;2.29;90.04
9839;BME280;4958;48.150;11.506;2024-03-08T05:15:00;95369.88;;;2.16;91.13
9839;BME280;4958;48.150;11.506;2024-03-08T05:17:27;95384.44;;;2.04;91.79
9839;BME280;4958;48.150;11.506;2024-03-08T05:19:55;95394.84;;;2.01;92.75
9839;BME280;4958;48.150;11.506;2024-03-08T05:22:22;95399.78;;;2.03;92.82
9839;BME280;4958;48.150;11.506;2024-03-08T05:24:48;95405.13;;;2.00;93.30
9839;BME280;4958;48.150;11.506;2024-03-08T05:27:14;95402.34;;;2.03;93.12
9839;BME280;4958;48.150;11.506;2024-03-08T05:29:42;95404.56;;;1.96;93.76
9839;BME280;4958;48.150;11.506;2024-03-08T05:32:09;95405.13;;;2.00;93.74
9839;BME280;4958;48.150;11.506;2024-03-08T05:34:35;95406.97;;;1.98;93.93
9839;BME280;4958;48.150;11.506;2024-03-08T05:37:03;95391.38;;;2.02;93.31
9839;BME280;4958;48.150;11.506;2024-03-08T05:39:29;95404.44;;;1.98;93.56
9839;BME280;4958;48.150;11.506;2024-03-08T05:41:56;95387.53;;;2.08;93.02
9839;BME280;4958;48.150;11.506;2024-03-08T05:44:22;95386.72;;;2.07;92.89
9839;BME280;4958;48.150;11.506;2024-03-08T05:46:52;95387.47;;;1.98;93.06
9839;BME280;4958;48.150;11.506;2024-03-08T05:49:20;95384.38;;;1.95;93.22
9839;BME280;4958;48.150;11.506;2024-03-08T05:51:49;95392.31;;;2.01;93.15
9839;BME280;4958;48.150;11.506;2024-03-08T05:54:15;95387.66;;;2.06;93.16
9839;BME280;4958;48.150;11.506;2024-03-08T05:56:42;95370.69;;;2.07;92.80
9839;BME280;4958;48.150;11.506;2024-03-08T05:59:12;95376.31;;;2.11;92.49
9839;BME280;4958;48.150;11.506;2024-03-08T06:01:41;95378.84;;;2.20;92.38
9839;BME280;4958;48.150;11.506;2024-03-08T06:04:09;95359.84;;;2.15;91.92
9839;BME280;4958;48.150;11.506;2024-03-08T06:06:36;95369.25;;;2.24;91.42
9839;BME280;4958;48.150;11.506;2024-03-08T06:09:03;95357.09;;;2.27;91.34
9839;BME280;4958;48.150;11.506;2024-03-08T06:11:34;95352.13;;;2.26;90.93
9839;BME280;4958;48.150;11.506;2024-03-08T06:14:01;95346.78;;;2.19;91.16
9839;BME280;4958;48.150;11.506;2024-03-08T06:16:27;95353.75;;;2.27;91.80
9839;BME280;4958;48.150;11.506;2024-03-08T06:18:55;95351.88;;;2.29;91.33
9839;BME280;4958;48.150;11.506;2024-03-08T06:21:26;95346.47;;;2.13;91.18
9839;BME280;4958;48.150;11.506;2024-03-08T06:23:53;95361.47;;;2.06;92.01
9839;BME280;4958;48.150;11.506;2024-03-08T06:26:20;95362.50;;;2.03;92.09
9839;BME280;4958;48.150;11.506;2024-03-08T06:28:47;95370.00;;;2.05;92.63
9839;BME280;4958;48.150;11.506;2024-03-08T06:31:13;95389.34;;;1.96;92.80
9839;BME280;4958;48.150;11.506;2024-03-08T06:33:40;95372.97;;;2.10;92.26
9839;BME280;4958;48.150;11.506;2024-03-08T06:36:08;95376.56;;;2.17;92.34
9839;BME280;4958;48.150;11.506;2024-03-08T06:38:38;95380.75;;;2.28;91.98
9839;BME280;4958;48.150;11.506;2024-03-08T06:41:08;95359.38;;;2.30;91.28
9839;BME280;4958;48.150;11.506;2024-03-08T06:43:34;95350.13;;;2.20;90.77
9839;BME280;4958;48.150;11.506;2024-03-08T06:46:01;95351.59;;;2.22;91.20
9839;BME280;4958;48.150;11.506;2024-03-08T06:48:29;95369.66;;;2.29;91.48
9839;BME280;4958;48.150;11.506;2024-03-08T06:50:55;95359.22;;;2.32;90.96
9839;BME280;4958;48.150;11.506;2024-03-08T06:53:21;95344.78;;;2.32;90.17
9839;BME280;4958;48.150;11.506;2024-03-08T06:55:50;95341.72;;;2.29;90.25
9839;BME280;4958;48.150;11.506;2024-03-08T06:58:17;95341.31;;;2.33;90.46
9839;BME280;4958;48.150;11.506;2024-03-08T07:00:44;95329.50;;;2.13;89.68
9839;BME280;4958;48.150;11.506;2024-03-08T07:03:10;95333.53;;;2.16;90.35
9839;BME280;4958;48.150;11.506;2024-03-08T07:05:42;95345.47;;;2.25;90.47
9839;BME280;4958;48.150;11.506;2024-03-08T07:08:08;95350.94;;;2.30;91.36
9839;BME280;4958;48.150;11.506;2024-03-08T07:10:35;95352.94;;;2.36;91.10
9839;BME280;4958;48.150;11.506;2024-03-08T07:13:03;95336.66;;;2.48;90.41
9839;BME280;4958;48.150;11.506;2024-03-08T07:15:30;95308.41;;;2.51;89.06
9839;BME280;4958;48.150;11.506;2024-03-08T07:17:57;95300.53;;;2.54;88.38
9839;BME280;4958;48.150;11.506;2024-03-08T07:20:25;95295.59;;;2.53;88.07
9839;BME280;4958;48.150;11.506;2024-03-08T07:22:51;95302.69;;;2.59;88.28
9839;BME280;4958;48.150;11.506;2024-03-08T07:25:18;95299.19;;;2.60;88.22
9839;BME280;4958;48.150;11.506;2024-03-08T07:27:47;95305.06;;;2.51;88.82
9839;BME280;4958;48.150;11.506;2024-03-08T07:30:14;95315.78;;;2.64;88.81
9839;BME280;4958;48.150;11.506;2024-03-08T07:33:04;95286.63;;;2.68;87.87
9839;BME280;4958;48.150;11.506;2024-03-08T07:35:31;95281.56;;;2.68;87.84
9839;BME280;4958;48.150;11.506;2024-03-08T07:37:58;95278.47;;;2.64;87.76
9839;BME280;4958;48.150;11.506;2024-03-08T07:40:25;95287.84;;;2.64;88.40
9839;BME280;4958;48.150;11.506;2024-03-08T07:42:54;95282.59;;;2.75;87.73
9839;BME280;4958;48.150;11.506;2024-03-08T07:45:23;95278.19;;;2.77;87.75
9839;BME280;4958;48.150;11.506;2024-03-08T07:47:49;95254.41;;;2.68;86.77
9839;BME280;4958;48.150;11.506;2024-03-08T07:50:16;95266.91;;;2.89;87.17
9839;BME280;4958;48.150;11.506;2024-03-08T07:52:44;95240.41;;;2.92;86.24
9839;BME280;4958;48.150;11.506;2024-03-08T07:55:11;95238.13;;;2.98;85.82
9839;BME280;4958;48.150;11.506;2024-03-08T07:57:39;95231.56;;;2.96;85.92
9839;BME280;4958;48.150;11.506;2024-03-08T08:00:10;95232.03;;;3.19;85.45
9839;BME280;4958;48.150;11.506;2024-03-08T08:02:44;95208.25;;;3.37;84.90
9839;BME280;4958;48.150;11.506;2024-03-08T08:05:11;95177.16;;;3.43;83.59
9839;BME280;4958;48.150;11.506;2024-03-08T08:07:39;95142.19;;;3.45;82.29
9839;BME280;4958;48.150;11.506;2024-03-08T08:10:09;95122.66;;;3.64;81.21
9839;BME280;4958;48.150;11.506;2024-03-08T08:12:42;95111.38;;;3.84;80.51
9839;BME280;4958;48.150;11.506;2024-03-08T08:15:08;95064.47;;;3.95;79.49
9839;BME280;4958;48.150;11.506;2024-03-08T08:17:35;95056.22;;;4.19;78.56
9839;BME280;4958;48.150;11.506;2024-03-08T08:20:03;95012.25;;;4.16;77.41
9839;BME280;4958;48.150;11.506;2024-03-08T08:22:30;94983.16;;;4.61;75.88
9839;BME280;4958;48.150;11.506;2024-03-08T08:24:59;94878.81;;;4.92;73.53
9839;BME280;4958;48.150;11.506;2024-03-08T08:27:27;94847.41;;;5.00;73.09
9839;BME280;4958;48.150;11.506;2024-03-08T08:29:54;94853.94;;;5.18;72.51
9839;BME280;4958;48.150;11.506;2024-03-08T08:32:21;94842.38;;;5.39;72.10
9839;BME280;4958;48.150;11.506;2024-03-08T08:34:49;94802.34;;;5.39;71.62
9839;BME280;4958;48.150;11.506;2024-03-08T08:37:17;94778.56;;;5.47;70.52
9839;BME280;4958;48.150;11.506;2024-03-08T08:39:43;94766.53;;;5.16;71.30
9839;BME280;4958;48.150;11.506;2024-03-08T08:42:10;94797.44;;;5.30;71.43
9839;BME280;4958;48.150;11.506;2024-03-08T08:44:38;94775.69;;;5.50;70.50
9839;BME280;4958;48.150;11.506;2024-03-08T08:47:04;94704.72;;;5.76;69.39
9839;BME280;4958;48.150;11.506;2024-03-08T08:49:31;94701.91;;;5.94;69.14
9839;BME280;4958;48.150;11.506;2024-03-08T08:51:58;94675.69;;;5.69;68.89
9839;BME280;4958;48.150;11.506;2024-03-08T08:54:26;94680.44;;;6.26;68.51
9839;BME280;4958;48.150;11.506;2024-03-08T08:56:53;94631.75;;;6.86;67.01
9839;BME280;4958;48.150;11.506;2024-03-08T08:59:19;94516.53;;;7.16;64.59
9839;BME280;4958;48.150;11.506;2024-03-08T09:01:48;94491.53;;;7.11;64.47
9839;BME280;4958;48.150;11.506;2024-03-08T09:04:15;94471.38;;;7.51;63.74
9839;BME280;4958;48.150;11.506;2024-03-08T09:06:42;94423.56;;;7.86;62.98
9839;BME280;4958;48.150;11.506;2024-03-08T09:09:10;94357.63;;;8.14;61.68
9839;BME280;4958;48.150;11.506;2024-03-08T09:11:39;94304.88;;;8.33;60.21
9839;BME280;4958;48.150;11.506;2024-03-08T09:14:10;94284.78;;;8.43;60.18
9839;BME280;4958;48.150;11.506;2024-03-08T09:16:37;94226.56;;;8.50;59.39
9839;BME280;4958;48.150;11.506;2024-03-08T09:19:03;94220.47;;;8.71;59.06
9839;BME280;4958;48.150;11.506;2024-03-08T09:21:32;94182.53;;;8.86;58.41
9839;BME280;4958;48.150;11.506;2024-03-08T09:24:00;94212.25;;;9.33;58.75
9839;BME280;4958;48.150;11.506;2024-03-08T09:26:26;94118.94;;;9.46;56.98
9839;BME280;4958;48.150;11.506;2024-03-08T09:28:54;94071.09;;;9.20;56.81
9839;BME280;4958;48.150;11.506;2024-03-08T09:31:25;94159.53;;;9.76;57.28
9839;BME280;4958;48.150;11.506;2024-03-08T09:34:10;94087.22;;;10.22;56.02
9839;BME280;4958;48.150;11.506;2024-03-08T09:36:55;94048.13;;;10.38;55.66
9839;BME280;4958;48.150;11.506;2024-03-08T09:39:41;93993.75;;;10.34;54.88
9839;BME280;4958;48.150;11.506;2024-03-08T09:42:15;93970.50;;;10.41;54.38
9839;BME280;4958;48.150;11.506;2024-03-08T09:44:47;93977.34;;;10.84;54.69
9839;BME280;4958;48.150;11.506;2024-03-08T09:47:14;93887.63;;;10.69;54.36
9839;BME280;4958;48.150;11.506;2024-03-08T09:49:41;93916.94;;;10.98;54.55
9839;BME280;4958;48.150;11.506;2024-03-08T09:52:08;93880.94;;;11.21;53.63
9839;BME280;4958;48.150;11.506;2024-03-08T09:54:35;93893.72;;;11.39;53.41
9839;BME280;4958;48.150;11.506;2024-03-08T09:57:03;93862.38;;;11.54;52.84
9839;BME280;4958;48.150;11.506;2024-03-08T09:59:30;93806.78;;;11.23;51.81
9839;BME280;4958;48.150;11.506;2024-03-08T10:02:14;93817.06;;;10.77;52.16
9839;BME280;4958;48.150;11.506;2024-03-08T10:04:41;93883.66;;;10.85;53.52
9839;BME280;4958;48.150;11.506;2024-03-08T10:07:08;93870.38;;;10.99;52.72
9839;BME280;4958;48.150;11.506;2024-03-08T10:09:35;93825.84;;;11.22;51.87
9839;BME280;4958;48.150;11.506;2024-03-08T10:12:01;93883.13;;;10.94;53.35
9839;BME280;4958;48.150;11.506;2024-03-08T10:14:28;93897.94;;;11.11;53.02
9839;BME280;4958;48.150;11.506;2024-03-08T10:16:54;93862.31;;;11.07;52.70
9839;BME280;4958;48.150;11.506;2024-03-08T10:19:26;93854.47;;;10.91;52.86
9839;BME280;4958;48.150;11.506;2024-03-08T10:21:53;93874.06;;;11.03;53.00
9839;BME280;4958;48.150;11.506;2024-03-08T10:24:22;93841.59;;;11.02;52.28
9839;BME280;4958;48.150;11.506;2024-03-08T10:26:52;93813.44;;;10.78;52.25
9839;BME280;4958;48.150;11.506;2024-03-08T10:29:18;93869.63;;;10.39;53.43
9839;BME280;4958;48.150;11.506;2024-03-08T10:31:45;93922.38;;;10.60;53.74
9839;BME280;4958;48.150;11.506;2024-03-08T10:34:11;93869.84;;;10.67;52.98
9839;BME280;4958;48.150;11.506;2024-03-08T10:36:39;93899.88;;;10.85;53.07
9839;BME280;4958;48.150;11.506;2024-03-08T10:39:12;93913.09;;;11.30;53.12
9839;BME280;4958;48.150;11.506;2024-03-08T10:41:44;93811.84;;;11.41;51.44
9839;BME280;4958;48.150;11.506;2024-03-08T10:44:23;93790.97;;;10.73;52.04
9839;BME280;4958;48.150;11.506;2024-03-08T10:47:00;93878.34;;;10.68;53.02
9839;BME280;4958;48.150;11.506;2024-03-08T10:49:31;93882.69;;;10.67;53.24
9839;BME280;4958;48.150;11.506;2024-03-08T10:52:02;93903.91;;;10.81;53.40
9839;BME280;4958;48.150;11.506;2024-03-08T10:54:30;93947.16;;;10.91;53.81
9839;BME280;4958;48.150;11.506;2024-03-08T10:56:59;93858.69;;;10.85;52.41
9839;BME280;4958;48.150;11.506;2024-03-08T10:59:26;93830.84;;;10.52;52.61
9839;BME280;4958;48.150;11.506;2024-03-08T11:01:53;93866.91;;;10.34;53.22
9839;BME280;4958;48.150;11.506;2024-03-08T11:04:20;93925.75;;;10.05;53.72
9839;BME280;4958;48.150;11.506;2024-03-08T11:06:49;94019.09;;;10.31;54.68
9839;BME280;4958;48.150;11.506;2024-03-08T11:09:29;93982.44;;;10.72;53.92
9839;BME280;4958;48.150;11.506;2024-03-08T11:12:21;93942.63;;;10.75;52.73
9839;BME280;4958;48.150;11.506;2024-03-08T11:14:51;93932.56;;;10.85;53.07
9839;BME280;4958;48.150;11.506;2024-03-08T11:17:20;93921.66;;;11.01;52.53
9839;BME280;4958;48.150;11.506;2024-03-08T11:19:48;93906.19;;;11.01;52.72
9839;BME280;4958;48.150;11.506;2024-03-08T11:22:21;93882.00;;;10.90;52.30
9839;BME280;4958;48.150;11.506;2024-03-08T11:24:51;93890.13;;;10.76;52.88
9839;BME280;4958;48.150;11.506;2024-03-08T11:27:18;94040.75;;;11.15;54.83
9839;BME280;4958;48.150;11.506;2024-03-08T11:29:59;93995.38;;;11.14;54.06
9839;BME280;4958;48.150;11.506;2024-03-08T11:32:27;93963.13;;;11.53;53.14
9839;BME280;4958;48.150;11.506;2024-03-08T11:34:55;93940.03;;;11.69;52.63
9839;BME280;4958;48.150;11.506;2024-03-08T11:37:22;93875.38;;;11.48;51.91
9839;BME280;4958;48.150;11.506;2024-03-08T11:39:51;93924.69;;;11.63;52.63
9839;BME280;4958;48.150;11.506;2024-03-08T11:42:24;93884.44;;;11.73;51.82
9839;BME280;4958;48.150;11.506;2024-03-08T11:44:52;93895.00;;;11.72;52.43
9839;BME280;4958;48.150;11.506;2024-03-08T11:47:19;93833.25;;;11.30;51.89
9839;BME280;4958;48.150;11.506;2024-03-08T11:49:46;93927.34;;;11.56;52.89
9839;BME280;4958;48.150;11.506;2024-03-08T11:52:14;93885.00;;;11.52;52.17
9839;BME280;4958;48.150;11.506;2024-03-08T11:54:41;93862.59;;;11.53;51.87
9839;BME280;4958;48.150;11.506;2024-03-08T11:57:09;93885.22;;;11.51;52.00
9839;BME280;4958;48.150;11.506;2024-03-08T11:59:36;93857.66;;;11.28;52.11
9839;BME280;4958;48.150;11.506;2024-03-08T12:02:04;93924.91;;;11.50;53.23
9839;BME280;4958;48.150;11.506;2024-03-08T12:04:31;93930.53;;;11.82;53.15
9839;BME280;4958;48.150;11.506;2024-03-08T12:07:01;93859.88;;;12.06;51.99
9839;BME280;4958;48.150;11.506;2024-03-08T12:09:30;93840.03;;;12.06;51.63
9839;BME280;4958;48.150;11.506;2024-03-08T12:11:58;93829.94;;;12.45;51.38
9839;BME280;4958;48.150;11.506;2024-03-08T12:14:26;93764.63;;;12.44;50.49
9839;BME280;4958;48.150;11.506;2024-03-08T12:16:53;93772.84;;;12.75;50.09
9839;BME280;4958;48.150;11.506;2024-03-08T12:19:19;93745.47;;;12.91;50.40
9839;BME280;4958;48.150;11.506;2024-03-08T12:21:46;93727.06;;;13.21;49.63
9839;BME280;4958;48.150;11.506;2024-03-08T12:24:16;93648.09;;;13.08;48.51
9839;BME280;4958;48.150;11.506;2024-03-08T12:26:45;93676.75;;;13.06;49.32
9839;BME280;4958;48.150;11.506;2024-03-08T12:29:15;93693.44;;;13.37;49.12
9839;BME280;4958;48.150;11.506;2024-03-08T12:31:44;93649.91;;;13.51;48.50
9839;BME280;4958;48.150;11.506;2024-03-08T12:34:12;93638.53;;;13.74;48.27
9839;BME280;4958;48.150;11.506;2024-03-08T12:36:44;93591.53;;;13.82;47.42
9839;BME280;4958;48.150;11.506;2024-03-08T12:39:13;93567.31;;;13.66;47.38
9839;BME280;4958;48.150;11.506;2024-03-08T12:41:41;93599.66;;;13.69;47.73
9839;BME280;4958;48.150;11.506;2024-03-08T12:44:08;93590.84;;;13.38;47.98
9839;BME280;4958;48.150;11.506;2024-03-08T12:46:36;93592.25;;;13.29;47.91
9839;BME280;4958;48.150;11.506;2024-03-08T12:49:07;93652.63;;;13.39;48.81
9839;BME280;4958;48.150;11.506;2024-03-08T12:51:34;93573.16;;;13.08;47.62
9839;BME280;4958;48.150;11.506;2024-03-08T12:54:01;93619.34;;;12.83;48.92
9839;BME280;4958;48.150;11.506;2024-03-08T12:56:31;93629.66;;;12.83;48.76
9839;BME280;4958;48.150;11.506;2024-03-08T12:58:59;93660.09;;;12.80;49.45
9839;BME280;4958;48.150;11.506;2024-03-08T13:01:26;93650.31;;;12.83;49.31
9839;BME280;4958;48.150;11.506;2024-03-08T13:03:53;93605.56;;;12.77;48.73
9839;BME280;4958;48.150;11.506;2024-03-08T13:06:23;93640.22;;;12.81;49.20
9839;BME280;4958;48.150;11.506;2024-03-08T13:08:50;93607.28;;;12.50;48.83
9839;BME280;4958;48.150;11.506;2024-03-08T13:11:17;93634.53;;;12.62;49.17
9839;BME280;4958;48.150;11.506;2024-03-08T13:13:44;93647.09;;;12.92;49.27
9839;BME280;4958;48.150;11.506;2024-03-08T13:16:11;93634.72;;;12.94;48.95
9839;BME280;4958;48.150;11.506;2024-03-08T13:18:40;93625.22;;;12.61;48.86
9839;BME280;4958;48.150;11.506;2024-03-08T13:21:08;93658.00;;;12.61;49.60
9839;BME280;4958;48.150;11.506;2024-03-08T13:23:37;93616.91;;;12.76;48.53